sensor_id;sensor_type;location;lat;lon;timestamp;P1;durP1;ratioP1;P2;durP2;ratioP2
58954;SDS011;45815;52.334;5.024;2024-03-02T00:00:57;3.65;;;1.42;;
58954;SDS011;45815;52.334;5.024;2024-03-02T00:03:22;3.65;;;1.50;;
58954;SDS011;45815;52.334;5.024;2024-03-02T00:05:48;4.75;;;1.63;;
58954;SDS011;45815;52.334;5.024;2024-03-02T00:08:19;4.80;;;1.60;;
58954;SDS011;45815;52.334;5.024;2024-03-02T00:10:49;3.78;;;1.13;;
58954;SDS011;45815;52.334;5.024;2024-03-02T00:13:15;4.82;;;1.50;;
58954;SDS011;45815;52.334;5.024;2024-03-02T00:15:41;3.88;;;1.42;;
58954;SDS011;45815;52.334;5.024;2024-03-02T00:18:11;3.70;;;1.17;;
58954;SDS011;45815;52.334;5.024;2024-03-02T00:20:38;2.33;;;0.90;;
58954;SDS011;45815;52.334;5.024;2024-03-02T00:23:07;2.70;;;0.80;;
58954;SDS011;45815;52.334;5.024;2024-03-02T00:25:44;1.42;;;0.47;;
58954;SDS011;45815;52.334;5.024;2024-03-02T00:30:51;1.05;;;0.50;;
58954;SDS011;45815;52.334;5.024;2024-03-02T00:33:24;0.75;;;0.35;;
58954;SDS011;45815;52.334;5.024;2024-03-02T00:35:51;0.90;;;0.40;;
58954;SDS011;45815;52.334;5.024;2024-03-02T00:38:17;0.90;;;0.40;;
58954;SDS011;45815;52.334;5.024;2024-03-02T00:40:43;3.13;;;0.50;;
58954;SDS011;45815;52.334;5.024;2024-03-02T00:43:39;0.77;;;0.30;;
58954;SDS011;45815;52.334;5.024;2024-03-02T00:46:17;1.42;;;0.55;;
58954;SDS011;45815;52.334;5.024;2024-03-02T00:49:03;3.15;;;0.50;;
58954;SDS011;45815;52.334;5.024;2024-03-02T00:51:31;0.63;;;0.47;;
58954;SDS011;45815;52.334;5.024;2024-03-02T00:53:58;2.60;;;0.57;;
58954;SDS011;45815;52.334;5.024;2024-03-02T00:56:25;1.13;;;0.40;;
58954;SDS011;45815;52.334;5.024;2024-03-02T00:58:51;1.45;;;0.30;;
58954;SDS011;45815;52.334;5.024;2024-03-02T01:01:17;0.98;;;0.40;;
58954;SDS011;45815;52.334;5.024;2024-03-02T01:03:44;1.13;;;0.40;;
58954;SDS011;45815;52.334;5.024;2024-03-02T01:06:10;1.05;;;0.40;;
58954;SDS011;45815;52.334;5.024;2024-03-02T01:08:35;1.25;;;0.55;;
58954;SDS011;45815;52.334;5.024;2024-03-02T01:11:02;0.77;;;0.35;;
58954;SDS011;45815;52.334;5.024;2024-03-02T01:13:27;1.67;;;0.50;;
58954;SDS011;45815;52.334;5.024;2024-03-02T01:15:53;1.20;;;0.47;;
58954;SDS011;45815;52.334;5.024;2024-03-02T01:18:18;2.75;;;0.70;;
58954;SDS011;45815;52.334;5.024;2024-03-02T01:20:44;1.38;;;0.60;;
58954;SDS011;45815;52.334;5.024;2024-03-02T01:23:09;1.25;;;0.55;;
58954;SDS011;45815;52.334;5.024;2024-03-02T01:25:35;1.50;;;0.55;;
58954;SDS011;45815;52.334;5.024;2024-03-02T01:28:01;1.92;;;0.70;;
58954;SDS011;45815;52.334;5.024;2024-03-02T01:30:26;1.25;;;0.50;;
58954;SDS011;45815;52.334;5.024;2024-03-02T01:32:52;2.17;;;0.70;;
58954;SDS011;45815;52.334;5.024;2024-03-02T01:35:17;1.67;;;0.80;;
58954;SDS011;45815;52.334;5.024;2024-03-02T01:37:42;1.00;;;0.52;;
58954;SDS011;45815;52.334;5.024;2024-03-02T01:40:08;3.08;;;0.80;;
58954;SDS011;45815;52.334;5.024;2024-03-02T01:42:35;1.75;;;0.70;;
58954;SDS011;45815;52.334;5.024;2024-03-02T01:45:01;3.53;;;1.05;;
58954;SDS011;45815;52.334;5.024;2024-03-02T01:47:28;2.45;;;0.90;;
58954;SDS011;45815;52.334;5.024;2024-03-02T01:49:54;3.50;;;1.13;;
58954;SDS011;45815;52.334;5.024;2024-03-02T01:52:19;2.70;;;1.00;;
58954;SDS011;45815;52.334;5.024;2024-03-02T01:54:45;3.00;;;1.10;;
58954;SDS011;45815;52.334;5.024;2024-03-02T01:57:10;2.13;;;0.90;;
58954;SDS011;45815;52.334;5.024;2024-03-02T01:59:36;3.47;;;0.90;;
58954;SDS011;45815;52.334;5.024;2024-03-02T02:02:01;4.40;;;1.02;;
58954;SDS011;45815;52.334;5.024;2024-03-02T02:04:26;3.85;;;1.00;;
58954;SDS011;45815;52.334;5.024;2024-03-02T02:06:53;3.75;;;1.20;;
58954;SDS011;45815;52.334;5.024;2024-03-02T02:09:19;4.07;;;1.20;;
58954;SDS011;45815;52.334;5.024;2024-03-02T02:11:44;3.17;;;1.25;;
58954;SDS011;45815;52.334;5.024;2024-03-02T02:14:10;4.00;;;1.20;;
58954;SDS011;45815;52.334;5.024;2024-03-02T02:16:36;3.40;;;1.90;;
58954;SDS011;45815;52.334;5.024;2024-03-02T02:19:01;2.42;;;1.10;;
58954;SDS011;45815;52.334;5.024;2024-03-02T02:21:28;3.20;;;1.08;;
58954;SDS011;45815;52.334;5.024;2024-03-02T02:23:53;2.78;;;1.15;;
58954;SDS011;45815;52.334;5.024;2024-03-02T02:26:18;3.00;;;1.00;;
58954;SDS011;45815;52.334;5.024;2024-03-02T02:28:44;2.05;;;0.90;;
58954;SDS011;45815;52.334;5.024;2024-03-02T02:31:15;2.05;;;0.80;;
58954;SDS011;45815;52.334;5.024;2024-03-02T02:33:40;1.58;;;0.60;;
58954;SDS011;45815;52.334;5.024;2024-03-02T02:36:06;3.35;;;0.73;;
58954;SDS011;45815;52.334;5.024;2024-03-02T02:38:32;1.05;;;0.55;;
58954;SDS011;45815;52.334;5.024;2024-03-02T02:41:01;1.90;;;0.70;;
58954;SDS011;45815;52.334;5.024;2024-03-02T02:43:27;2.72;;;0.75;;
58954;SDS011;45815;52.334;5.024;2024-03-02T02:45:52;1.75;;;0.75;;
58954;SDS011;45815;52.334;5.024;2024-03-02T02:48:18;2.22;;;0.75;;
58954;SDS011;45815;52.334;5.024;2024-03-02T02:50:43;1.95;;;0.60;;
58954;SDS011;45815;52.334;5.024;2024-03-02T02:53:09;2.08;;;0.90;;
58954;SDS011;45815;52.334;5.024;2024-03-02T02:55:35;1.65;;;0.60;;
58954;SDS011;45815;52.334;5.024;2024-03-02T02:58:05;4.43;;;0.80;;
58954;SDS011;45815;52.334;5.024;2024-03-02T03:00:33;1.30;;;0.80;;
58954;SDS011;45815;52.334;5.024;2024-03-02T03:02:59;2.30;;;0.70;;
58954;SDS011;45815;52.334;5.024;2024-03-02T03:05:24;1.98;;;0.70;;
58954;SDS011;45815;52.334;5.024;2024-03-02T03:07:49;1.15;;;0.65;;
58954;SDS011;45815;52.334;5.024;2024-03-02T03:10:15;1.13;;;0.50;;
58954;SDS011;45815;52.334;5.024;2024-03-02T03:12:41;2.42;;;0.65;;
58954;SDS011;45815;52.334;5.024;2024-03-02T03:15:10;2.55;;;0.77;;
58954;SDS011;45815;52.334;5.024;2024-03-02T03:17:36;3.17;;;0.90;;
58954;SDS011;45815;52.334;5.024;2024-03-02T03:20:02;1.65;;;0.68;;
58954;SDS011;45815;52.334;5.024;2024-03-02T03:22:29;2.80;;;0.90;;
58954;SDS011;45815;52.334;5.024;2024-03-02T03:24:56;1.63;;;0.75;;
58954;SDS011;45815;52.334;5.024;2024-03-02T03:27:21;2.55;;;0.98;;
58954;SDS011;45815;52.334;5.024;2024-03-02T03:29:47;3.70;;;1.13;;
58954;SDS011;45815;52.334;5.024;2024-03-02T03:32:12;4.03;;;1.63;;
58954;SDS011;45815;52.334;5.024;2024-03-02T03:34:37;1.83;;;0.77;;
58954;SDS011;45815;52.334;5.024;2024-03-02T03:37:03;1.98;;;0.80;;
58954;SDS011;45815;52.334;5.024;2024-03-02T03:39:28;2.72;;;0.88;;
58954;SDS011;45815;52.334;5.024;2024-03-02T03:41:54;2.38;;;0.80;;
58954;SDS011;45815;52.334;5.024;2024-03-02T03:44:19;2.47;;;0.80;;
58954;SDS011;45815;52.334;5.024;2024-03-02T03:46:45;1.85;;;0.52;;
58954;SDS011;45815;52.334;5.024;2024-03-02T03:49:10;1.98;;;0.88;;
58954;SDS011;45815;52.334;5.024;2024-03-02T03:51:36;2.80;;;0.60;;
58954;SDS011;45815;52.334;5.024;2024-03-02T03:54:01;3.10;;;0.77;;
58954;SDS011;45815;52.334;5.024;2024-03-02T03:56:27;2.03;;;0.73;;
58954;SDS011;45815;52.334;5.024;2024-03-02T03:58:52;2.50;;;0.88;;
58954;SDS011;45815;52.334;5.024;2024-03-02T04:01:17;3.33;;;0.80;;
58954;SDS011;45815;52.334;5.024;2024-03-02T04:03:43;2.28;;;0.80;;
58954;SDS011;45815;52.334;5.024;2024-03-02T04:06:08;2.15;;;0.63;;
58954;SDS011;45815;52.334;5.024;2024-03-02T04:08:34;1.65;;;0.65;;
58954;SDS011;45815;52.334;5.024;2024-03-02T04:10:59;2.60;;;0.70;;
58954;SDS011;45815;52.334;5.024;2024-03-02T04:13:25;1.65;;;0.70;;
58954;SDS011;45815;52.334;5.024;2024-03-02T04:15:50;2.55;;;0.90;;
58954;SDS011;45815;52.334;5.024;2024-03-02T04:18:15;1.52;;;0.60;;
58954;SDS011;45815;52.334;5.024;2024-03-02T04:20:41;2.97;;;0.90;;
58954;SDS011;45815;52.334;5.024;2024-03-02T04:23:07;2.97;;;0.70;;
58954;SDS011;45815;52.334;5.024;2024-03-02T04:25:32;1.73;;;0.70;;
58954;SDS011;45815;52.334;5.024;2024-03-02T04:27:58;3.08;;;0.80;;
58954;SDS011;45815;52.334;5.024;2024-03-02T04:30:23;2.88;;;1.00;;
58954;SDS011;45815;52.334;5.024;2024-03-02T04:32:50;2.35;;;0.70;;
58954;SDS011;45815;52.334;5.024;2024-03-02T04:35:15;1.50;;;0.55;;
58954;SDS011;45815;52.334;5.024;2024-03-02T04:37:41;3.10;;;0.70;;
58954;SDS011;45815;52.334;5.024;2024-03-02T04:40:06;2.75;;;0.93;;
58954;SDS011;45815;52.334;5.024;2024-03-02T04:42:35;3.10;;;0.80;;
58954;SDS011;45815;52.334;5.024;2024-03-02T04:45:01;1.35;;;0.75;;
58954;SDS011;45815;52.334;5.024;2024-03-02T04:47:27;3.05;;;0.73;;
58954;SDS011;45815;52.334;5.024;2024-03-02T04:49:53;3.30;;;1.13;;
58954;SDS011;45815;52.334;5.024;2024-03-02T04:52:18;1.17;;;0.68;;
58954;SDS011;45815;52.334;5.024;2024-03-02T04:54:44;3.17;;;0.80;;
58954;SDS011;45815;52.334;5.024;2024-03-02T04:57:27;1.83;;;0.77;;
58954;SDS011;45815;52.334;5.024;2024-03-02T04:59:53;3.97;;;0.90;;
58954;SDS011;45815;52.334;5.024;2024-03-02T05:02:18;3.35;;;0.88;;
58954;SDS011;45815;52.334;5.024;2024-03-02T05:04:44;1.77;;;0.80;;
58954;SDS011;45815;52.334;5.024;2024-03-02T05:07:09;3.17;;;0.95;;
58954;SDS011;45815;52.334;5.024;2024-03-02T05:09:35;2.67;;;0.70;;
58954;SDS011;45815;52.334;5.024;2024-03-02T05:12:00;3.28;;;0.70;;
58954;SDS011;45815;52.334;5.024;2024-03-02T05:14:45;3.05;;;0.90;;
58954;SDS011;45815;52.334;5.024;2024-03-02T05:17:11;3.72;;;0.80;;
58954;SDS011;45815;52.334;5.024;2024-03-02T05:19:36;2.53;;;0.98;;
58954;SDS011;45815;52.334;5.024;2024-03-02T05:22:02;2.55;;;0.82;;
58954;SDS011;45815;52.334;5.024;2024-03-02T05:24:28;4.10;;;0.90;;
58954;SDS011;45815;52.334;5.024;2024-03-02T05:26:53;3.05;;;0.80;;
58954;SDS011;45815;52.334;5.024;2024-03-02T05:29:19;2.90;;;0.80;;
58954;SDS011;45815;52.334;5.024;2024-03-02T05:31:45;3.30;;;0.90;;
58954;SDS011;45815;52.334;5.024;2024-03-02T05:34:10;2.53;;;0.70;;
58954;SDS011;45815;52.334;5.024;2024-03-02T05:36:36;1.88;;;0.85;;
58954;SDS011;45815;52.334;5.024;2024-03-02T05:39:03;4.57;;;0.90;;
58954;SDS011;45815;52.334;5.024;2024-03-02T05:41:31;2.38;;;0.80;;
58954;SDS011;45815;52.334;5.024;2024-03-02T05:43:56;3.20;;;0.88;;
58954;SDS011;45815;52.334;5.024;2024-03-02T05:46:22;3.35;;;1.08;;
58954;SDS011;45815;52.334;5.024;2024-03-02T05:48:47;1.58;;;0.60;;
58954;SDS011;45815;52.334;5.024;2024-03-02T05:51:13;4.57;;;1.08;;
58954;SDS011;45815;52.334;5.024;2024-03-02T05:53:38;2.35;;;1.00;;
58954;SDS011;45815;52.334;5.024;2024-03-02T05:56:04;2.83;;;0.70;;
58954;SDS011;45815;52.334;5.024;2024-03-02T05:58:30;2.38;;;0.85;;
58954;SDS011;45815;52.334;5.024;2024-03-02T06:01:08;2.03;;;0.90;;
58954;SDS011;45815;52.334;5.024;2024-03-02T06:03:33;3.58;;;0.90;;
58954;SDS011;45815;52.334;5.024;2024-03-02T06:05:58;2.80;;;1.45;;
58954;SDS011;45815;52.334;5.024;2024-03-02T06:08:24;2.08;;;0.80;;
58954;SDS011;45815;52.334;5.024;2024-03-02T06:10:50;3.05;;;1.33;;
58954;SDS011;45815;52.334;5.024;2024-03-02T06:13:15;3.42;;;1.02;;
58954;SDS011;45815;52.334;5.024;2024-03-02T06:15:40;3.20;;;0.70;;
58954;SDS011;45815;52.334;5.024;2024-03-02T06:18:06;2.25;;;0.68;;
58954;SDS011;45815;52.334;5.024;2024-03-02T06:20:32;2.08;;;0.80;;
58954;SDS011;45815;52.334;5.024;2024-03-02T06:22:58;2.85;;;0.75;;
58954;SDS011;45815;52.334;5.024;2024-03-02T06:25:24;2.67;;;0.70;;
58954;SDS011;45815;52.334;5.024;2024-03-02T06:27:49;3.35;;;1.00;;
58954;SDS011;45815;52.334;5.024;2024-03-02T06:30:14;2.65;;;0.80;;
58954;SDS011;45815;52.334;5.024;2024-03-02T06:32:40;2.95;;;1.05;;
58954;SDS011;45815;52.334;5.024;2024-03-02T06:35:05;2.38;;;1.00;;
58954;SDS011;45815;52.334;5.024;2024-03-02T06:37:35;2.85;;;0.98;;
58954;SDS011;45815;52.334;5.024;2024-03-02T06:40:00;2.33;;;0.70;;
58954;SDS011;45815;52.334;5.024;2024-03-02T06:42:26;1.50;;;0.60;;
58954;SDS011;45815;52.334;5.024;2024-03-02T06:44:51;6.03;;;0.85;;
58954;SDS011;45815;52.334;5.024;2024-03-02T06:47:17;3.78;;;0.77;;
58954;SDS011;45815;52.334;5.024;2024-03-02T06:49:42;4.07;;;0.80;;
58954;SDS011;45815;52.334;5.024;2024-03-02T06:52:08;3.45;;;0.98;;
58954;SDS011;45815;52.334;5.024;2024-03-02T06:54:33;4.57;;;0.80;;
58954;SDS011;45815;52.334;5.024;2024-03-02T06:56:59;4.75;;;1.50;;
58954;SDS011;45815;52.334;5.024;2024-03-02T06:59:25;3.50;;;0.88;;
58954;SDS011;45815;52.334;5.024;2024-03-02T07:01:50;3.80;;;1.20;;
58954;SDS011;45815;52.334;5.024;2024-03-02T07:04:16;2.22;;;0.70;;
58954;SDS011;45815;52.334;5.024;2024-03-02T07:06:41;2.30;;;0.80;;
58954;SDS011;45815;52.334;5.024;2024-03-02T07:09:07;3.20;;;0.68;;
58954;SDS011;45815;52.334;5.024;2024-03-02T07:11:36;3.03;;;0.80;;
58954;SDS011;45815;52.334;5.024;2024-03-02T07:14:01;2.03;;;0.77;;
58954;SDS011;45815;52.334;5.024;2024-03-02T07:16:27;2.50;;;0.63;;
58954;SDS011;45815;52.334;5.024;2024-03-02T07:18:58;4.82;;;1.00;;
58954;SDS011;45815;52.334;5.024;2024-03-02T07:21:24;3.30;;;0.75;;
58954;SDS011;45815;52.334;5.024;2024-03-02T07:23:50;4.65;;;1.00;;
58954;SDS011;45815;52.334;5.024;2024-03-02T07:26:15;4.68;;;0.80;;
58954;SDS011;45815;52.334;5.024;2024-03-02T07:28:43;4.47;;;1.10;;
58954;SDS011;45815;52.334;5.024;2024-03-02T07:31:09;6.05;;;1.42;;
58954;SDS011;45815;52.334;5.024;2024-03-02T07:33:35;3.47;;;1.20;;
58954;SDS011;45815;52.334;5.024;2024-03-02T07:36:00;3.08;;;0.82;;
58954;SDS011;45815;52.334;5.024;2024-03-02T07:38:27;4.57;;;0.90;;
58954;SDS011;45815;52.334;5.024;2024-03-02T07:40:57;4.30;;;0.82;;
58954;SDS011;45815;52.334;5.024;2024-03-02T07:43:22;4.88;;;1.20;;
58954;SDS011;45815;52.334;5.024;2024-03-02T07:45:48;3.35;;;0.82;;
58954;SDS011;45815;52.334;5.024;2024-03-02T07:48:14;2.15;;;0.80;;
58954;SDS011;45815;52.334;5.024;2024-03-02T07:50:40;5.72;;;1.23;;
58954;SDS011;45815;52.334;5.024;2024-03-02T07:53:05;4.45;;;1.10;;
58954;SDS011;45815;52.334;5.024;2024-03-02T07:55:32;3.10;;;1.00;;
58954;SDS011;45815;52.334;5.024;2024-03-02T07:57:58;3.65;;;0.82;;
58954;SDS011;45815;52.334;5.024;2024-03-02T08:00:23;5.57;;;1.00;;
58954;SDS011;45815;52.334;5.024;2024-03-02T08:02:50;3.75;;;0.85;;
58954;SDS011;45815;52.334;5.024;2024-03-02T08:05:18;3.25;;;0.80;;
58954;SDS011;45815;52.334;5.024;2024-03-02T08:07:44;4.30;;;1.17;;
58954;SDS011;45815;52.334;5.024;2024-03-02T08:10:10;2.25;;;0.73;;
58954;SDS011;45815;52.334;5.024;2024-03-02T08:12:36;4.63;;;1.00;;
58954;SDS011;45815;52.334;5.024;2024-03-02T08:15:01;3.42;;;0.80;;
58954;SDS011;45815;52.334;5.024;2024-03-02T08:17:27;6.18;;;1.42;;
58954;SDS011;45815;52.334;5.024;2024-03-02T08:19:52;3.15;;;1.00;;
58954;SDS011;45815;52.334;5.024;2024-03-02T08:22:18;2.05;;;0.75;;
58954;SDS011;45815;52.334;5.024;2024-03-02T08:24:44;3.75;;;1.30;;
58954;SDS011;45815;52.334;5.024;2024-03-02T08:27:10;4.63;;;1.10;;
58954;SDS011;45815;52.334;5.024;2024-03-02T08:29:36;5.05;;;1.00;;
58954;SDS011;45815;52.334;5.024;2024-03-02T08:32:01;6.13;;;1.60;;
58954;SDS011;45815;52.334;5.024;2024-03-02T08:34:26;4.43;;;1.33;;
58954;SDS011;45815;52.334;5.024;2024-03-02T08:36:52;4.80;;;1.20;;
58954;SDS011;45815;52.334;5.024;2024-03-02T08:39:17;3.85;;;0.90;;
58954;SDS011;45815;52.334;5.024;2024-03-02T08:41:44;6.35;;;0.80;;
58954;SDS011;45815;52.334;5.024;2024-03-02T08:44:10;2.83;;;0.80;;
58954;SDS011;45815;52.334;5.024;2024-03-02T08:46:37;3.35;;;1.00;;
58954;SDS011;45815;52.334;5.024;2024-03-02T08:49:02;3.35;;;0.77;;
58954;SDS011;45815;52.334;5.024;2024-03-02T08:51:28;6.93;;;1.02;;
58954;SDS011;45815;52.334;5.024;2024-03-02T08:53:53;3.00;;;1.00;;
58954;SDS011;45815;52.334;5.024;2024-03-02T08:56:19;7.10;;;1.20;;
58954;SDS011;45815;52.334;5.024;2024-03-02T08:58:46;4.68;;;0.98;;
58954;SDS011;45815;52.334;5.024;2024-03-02T09:01:12;5.50;;;1.38;;
58954;SDS011;45815;52.334;5.024;2024-03-02T09:03:37;7.50;;;1.00;;
58954;SDS011;45815;52.334;5.024;2024-03-02T09:06:03;6.28;;;1.00;;
58954;SDS011;45815;52.334;5.024;2024-03-02T09:08:29;7.75;;;1.27;;
58954;SDS011;45815;52.334;5.024;2024-03-02T09:10:54;5.65;;;1.30;;
58954;SDS011;45815;52.334;5.024;2024-03-02T09:13:21;4.40;;;1.00;;
58954;SDS011;45815;52.334;5.024;2024-03-02T09:15:47;4.72;;;0.98;;
58954;SDS011;45815;52.334;5.024;2024-03-02T09:18:13;3.05;;;0.85;;
58954;SDS011;45815;52.334;5.024;2024-03-02T09:20:39;6.30;;;0.93;;
58954;SDS011;45815;52.334;5.024;2024-03-02T09:23:04;3.67;;;0.90;;
58954;SDS011;45815;52.334;5.024;2024-03-02T09:25:29;4.47;;;0.90;;
58954;SDS011;45815;52.334;5.024;2024-03-02T09:27:55;6.50;;;1.20;;
58954;SDS011;45815;52.334;5.024;2024-03-02T09:30:20;6.85;;;1.00;;
58954;SDS011;45815;52.334;5.024;2024-03-02T09:32:45;5.82;;;1.00;;
58954;SDS011;45815;52.334;5.024;2024-03-02T09:35:11;6.85;;;1.05;;
58954;SDS011;45815;52.334;5.024;2024-03-02T09:37:37;7.15;;;1.17;;
58954;SDS011;45815;52.334;5.024;2024-03-02T09:40:02;6.93;;;1.17;;
58954;SDS011;45815;52.334;5.024;2024-03-02T09:42:29;7.07;;;1.35;;
58954;SDS011;45815;52.334;5.024;2024-03-02T09:44:54;7.53;;;1.38;;
58954;SDS011;45815;52.334;5.024;2024-03-02T09:47:20;7.72;;;1.35;;
58954;SDS011;45815;52.334;5.024;2024-03-02T09:49:46;6.30;;;1.58;;
58954;SDS011;45815;52.334;5.024;2024-03-02T09:52:11;7.60;;;1.60;;
58954;SDS011;45815;52.334;5.024;2024-03-02T09:54:38;6.63;;;1.35;;
58954;SDS011;45815;52.334;5.024;2024-03-02T09:57:04;3.95;;;1.20;;
58954;SDS011;45815;52.334;5.024;2024-03-02T09:59:29;4.43;;;1.38;;
58954;SDS011;45815;52.334;5.024;2024-03-02T10:01:55;5.95;;;1.30;;
58954;SDS011;45815;52.334;5.024;2024-03-02T10:04:23;5.65;;;1.10;;
58954;SDS011;45815;52.334;5.024;2024-03-02T10:06:50;4.88;;;1.30;;
58954;SDS011;45815;52.334;5.024;2024-03-02T10:09:26;6.28;;;1.17;;
58954;SDS011;45815;52.334;5.024;2024-03-02T10:11:52;6.47;;;1.20;;
58954;SDS011;45815;52.334;5.024;2024-03-02T10:14:18;6.10;;;1.55;;
58954;SDS011;45815;52.334;5.024;2024-03-02T10:16:44;7.15;;;1.50;;
58954;SDS011;45815;52.334;5.024;2024-03-02T10:19:16;5.88;;;1.10;;
58954;SDS011;45815;52.334;5.024;2024-03-02T10:21:50;6.65;;;1.55;;
58954;SDS011;45815;52.334;5.024;2024-03-02T10:24:17;8.75;;;1.67;;
58954;SDS011;45815;52.334;5.024;2024-03-02T10:26:46;6.25;;;1.55;;
58954;SDS011;45815;52.334;5.024;2024-03-02T10:29:12;6.55;;;1.60;;
58954;SDS011;45815;52.334;5.024;2024-03-02T10:31:38;6.00;;;1.08;;
58954;SDS011;45815;52.334;5.024;2024-03-02T10:34:04;7.43;;;1.67;;
58954;SDS011;45815;52.334;5.024;2024-03-02T10:36:30;6.60;;;1.25;;
58954;SDS011;45815;52.334;5.024;2024-03-02T10:38:57;6.28;;;1.45;;
58954;SDS011;45815;52.334;5.024;2024-03-02T10:41:24;6.85;;;1.38;;
58954;SDS011;45815;52.334;5.024;2024-03-02T10:43:55;5.07;;;1.05;;
58954;SDS011;45815;52.334;5.024;2024-03-02T10:46:27;7.20;;;1.17;;
58954;SDS011;45815;52.334;5.024;2024-03-02T10:48:57;6.50;;;1.20;;
58954;SDS011;45815;52.334;5.024;2024-03-02T10:51:27;8.98;;;1.50;;
58954;SDS011;45815;52.334;5.024;2024-03-02T10:53:56;5.53;;;1.67;;
58954;SDS011;45815;52.334;5.024;2024-03-02T10:56:32;5.50;;;1.20;;
58954;SDS011;45815;52.334;5.024;2024-03-02T11:01:51;5.57;;;1.27;;
58954;SDS011;45815;52.334;5.024;2024-03-02T11:04:22;5.88;;;1.20;;
58954;SDS011;45815;52.334;5.024;2024-03-02T11:06:50;6.57;;;1.40;;
58954;SDS011;45815;52.334;5.024;2024-03-02T11:09:18;8.05;;;1.35;;
58954;SDS011;45815;52.334;5.024;2024-03-02T11:11:48;5.97;;;1.05;;
58954;SDS011;45815;52.334;5.024;2024-03-02T11:14:20;6.07;;;1.52;;
58954;SDS011;45815;52.334;5.024;2024-03-02T11:16:48;6.45;;;1.17;;
58954;SDS011;45815;52.334;5.024;2024-03-02T11:19:15;6.75;;;1.02;;
58954;SDS011;45815;52.334;5.024;2024-03-02T11:21:41;8.25;;;1.73;;
58954;SDS011;45815;52.334;5.024;2024-03-02T11:26:52;5.15;;;1.17;;
58954;SDS011;45815;52.334;5.024;2024-03-02T11:30:03;5.13;;;1.10;;
58954;SDS011;45815;52.334;5.024;2024-03-02T11:32:22;6.07;;;1.45;;
58954;SDS011;45815;52.334;5.024;2024-03-02T11:37:15;6.30;;;1.65;;
58954;SDS011;45815;52.334;5.024;2024-03-02T11:39:50;3.53;;;1.10;;
58954;SDS011;45815;52.334;5.024;2024-03-02T11:42:16;6.20;;;1.35;;
58954;SDS011;45815;52.334;5.024;2024-03-02T11:44:43;6.68;;;1.25;;
58954;SDS011;45815;52.334;5.024;2024-03-02T11:47:11;4.50;;;0.90;;
58954;SDS011;45815;52.334;5.024;2024-03-02T11:49:49;5.63;;;1.10;;
58954;SDS011;45815;52.334;5.024;2024-03-02T11:52:16;6.80;;;1.23;;
58954;SDS011;45815;52.334;5.024;2024-03-02T11:54:46;5.10;;;1.10;;
58954;SDS011;45815;52.334;5.024;2024-03-02T11:57:16;5.05;;;1.10;;
58954;SDS011;45815;52.334;5.024;2024-03-02T11:59:45;4.70;;;1.20;;
58954;SDS011;45815;52.334;5.024;2024-03-02T12:02:18;8.05;;;1.48;;
58954;SDS011;45815;52.334;5.024;2024-03-02T12:04:45;5.75;;;1.00;;
58954;SDS011;45815;52.334;5.024;2024-03-02T12:07:12;5.40;;;1.08;;
58954;SDS011;45815;52.334;5.024;2024-03-02T12:09:45;4.65;;;1.00;;
58954;SDS011;45815;52.334;5.024;2024-03-02T12:12:11;5.65;;;1.20;;
58954;SDS011;45815;52.334;5.024;2024-03-02T12:14:37;4.18;;;1.05;;
58954;SDS011;45815;52.334;5.024;2024-03-02T12:17:03;4.97;;;1.20;;
58954;SDS011;45815;52.334;5.024;2024-03-02T12:19:30;4.13;;;0.90;;
58954;SDS011;45815;52.334;5.024;2024-03-02T12:21:57;3.08;;;0.90;;
58954;SDS011;45815;52.334;5.024;2024-03-02T12:24:23;4.88;;;1.23;;
58954;SDS011;45815;52.334;5.024;2024-03-02T12:26:50;3.25;;;1.33;;
58954;SDS011;45815;52.334;5.024;2024-03-02T12:29:17;4.50;;;1.10;;
58954;SDS011;45815;52.334;5.024;2024-03-02T12:31:44;5.70;;;1.08;;
58954;SDS011;45815;52.334;5.024;2024-03-02T12:34:13;3.70;;;1.00;;
58954;SDS011;45815;52.334;5.024;2024-03-02T12:36:40;5.93;;;1.30;;
58954;SDS011;45815;52.334;5.024;2024-03-02T12:39:09;4.00;;;1.08;;
58954;SDS011;45815;52.334;5.024;2024-03-02T12:41:37;4.07;;;1.00;;
58954;SDS011;45815;52.334;5.024;2024-03-02T12:44:03;4.85;;;1.38;;
58954;SDS011;45815;52.334;5.024;2024-03-02T12:46:30;5.68;;;1.23;;
58954;SDS011;45815;52.334;5.024;2024-03-02T12:48:56;4.65;;;1.13;;
58954;SDS011;45815;52.334;5.024;2024-03-02T12:51:21;4.00;;;0.95;;
58954;SDS011;45815;52.334;5.024;2024-03-02T12:53:59;4.30;;;1.20;;
58954;SDS011;45815;52.334;5.024;2024-03-02T12:56:25;4.22;;;1.10;;
58954;SDS011;45815;52.334;5.024;2024-03-02T12:58:54;4.20;;;1.05;;
58954;SDS011;45815;52.334;5.024;2024-03-02T13:01:20;3.38;;;1.10;;
58954;SDS011;45815;52.334;5.024;2024-03-02T13:03:45;5.70;;;1.25;;
58954;SDS011;45815;52.334;5.024;2024-03-02T13:06:13;6.05;;;1.23;;
58954;SDS011;45815;52.334;5.024;2024-03-02T13:08:39;3.20;;;0.77;;
58954;SDS011;45815;52.334;5.024;2024-03-02T13:11:05;5.00;;;1.17;;
58954;SDS011;45815;52.334;5.024;2024-03-02T13:13:32;6.57;;;1.25;;
58954;SDS011;45815;52.334;5.024;2024-03-02T13:15:58;5.72;;;1.35;;
58954;SDS011;45815;52.334;5.024;2024-03-02T13:18:23;4.10;;;1.05;;
58954;SDS011;45815;52.334;5.024;2024-03-02T13:20:49;4.95;;;1.10;;
58954;SDS011;45815;52.334;5.024;2024-03-02T13:23:14;4.32;;;1.33;;
58954;SDS011;45815;52.334;5.024;2024-03-02T13:25:39;7.32;;;1.17;;
58954;SDS011;45815;52.334;5.024;2024-03-02T13:28:05;4.57;;;1.20;;
58954;SDS011;45815;52.334;5.024;2024-03-02T13:30:32;5.63;;;1.17;;
58954;SDS011;45815;52.334;5.024;2024-03-02T13:32:58;3.85;;;0.95;;
58954;SDS011;45815;52.334;5.024;2024-03-02T13:35:23;5.90;;;1.10;;
58954;SDS011;45815;52.334;5.024;2024-03-02T13:37:49;5.00;;;1.17;;
58954;SDS011;45815;52.334;5.024;2024-03-02T13:40:15;6.00;;;1.45;;
58954;SDS011;45815;52.334;5.024;2024-03-02T13:42:45;9.98;;;2.17;;
58954;SDS011;45815;52.334;5.024;2024-03-02T13:45:12;8.52;;;1.27;;
58954;SDS011;45815;52.334;5.024;2024-03-02T13:47:38;4.43;;;1.10;;
58954;SDS011;45815;52.334;5.024;2024-03-02T13:50:03;4.60;;;1.40;;
58954;SDS011;45815;52.334;5.024;2024-03-02T13:52:30;5.72;;;1.20;;
58954;SDS011;45815;52.334;5.024;2024-03-02T13:54:55;7.05;;;1.10;;
58954;SDS011;45815;52.334;5.024;2024-03-02T13:57:21;5.50;;;1.00;;
58954;SDS011;45815;52.334;5.024;2024-03-02T13:59:46;4.18;;;0.90;;
58954;SDS011;45815;52.334;5.024;2024-03-02T14:02:12;3.55;;;0.90;;
58954;SDS011;45815;52.334;5.024;2024-03-02T14:04:37;4.25;;;0.90;;
58954;SDS011;45815;52.334;5.024;2024-03-02T14:07:04;2.65;;;0.75;;
58954;SDS011;45815;52.334;5.024;2024-03-02T14:09:32;5.68;;;1.25;;
58954;SDS011;45815;52.334;5.024;2024-03-02T14:11:57;5.70;;;0.98;;
58954;SDS011;45815;52.334;5.024;2024-03-02T14:14:25;4.28;;;0.98;;
58954;SDS011;45815;52.334;5.024;2024-03-02T14:16:51;4.00;;;1.02;;
58954;SDS011;45815;52.334;5.024;2024-03-02T14:19:17;3.53;;;0.93;;
58954;SDS011;45815;52.334;5.024;2024-03-02T14:21:43;5.95;;;1.30;;
58954;SDS011;45815;52.334;5.024;2024-03-02T14:24:08;5.70;;;1.23;;
58954;SDS011;45815;52.334;5.024;2024-03-02T14:26:36;4.15;;;0.95;;
58954;SDS011;45815;52.334;5.024;2024-03-02T14:29:02;5.28;;;1.20;;
58954;SDS011;45815;52.334;5.024;2024-03-02T14:31:28;3.72;;;1.00;;
58954;SDS011;45815;52.334;5.024;2024-03-02T14:33:54;5.70;;;0.90;;
58954;SDS011;45815;52.334;5.024;2024-03-02T14:36:20;5.63;;;1.00;;
58954;SDS011;45815;52.334;5.024;2024-03-02T14:38:45;2.50;;;0.75;;
58954;SDS011;45815;52.334;5.024;2024-03-02T14:41:11;7.05;;;1.20;;
58954;SDS011;45815;52.334;5.024;2024-03-02T14:43:36;4.60;;;1.05;;
58954;SDS011;45815;52.334;5.024;2024-03-02T14:46:02;8.60;;;1.42;;
58954;SDS011;45815;52.334;5.024;2024-03-02T14:48:28;3.80;;;1.30;;
58954;SDS011;45815;52.334;5.024;2024-03-02T14:50:54;5.50;;;1.13;;
58954;SDS011;45815;52.334;5.024;2024-03-02T14:53:19;4.43;;;1.30;;
58954;SDS011;45815;52.334;5.024;2024-03-02T14:55:44;4.80;;;1.08;;